Time;durP1;ratioP1;P1;durP2;ratioP2;P2;SDS_P1;SDS_P2;PMS_P1;PMS_P2;Temp;Humidity;BMP_temperature;BMP_pressure;BME280_temperature;BME280_humidity;BME280_pressure;Samples;Min_cycle;Max_cycle;Signal;HPM_P1;HPM_P2
2022/07/28 00:01:44;;;;;;;2.10;0.90;;;;;;;14.49;61.02;101881.66;5023969;28;20087;-72
2022/07/28 00:04:10;;;;;;;2.15;1.00;;;;;;;14.47;61.26;101888.69;5026703;28;20464;-73
2022/07/28 00:06:35;;;;;;;1.52;1.00;;;;;;;14.42;60.94;101894.88;5022509;28;20039;-72
2022/07/28 00:09:00;;;;;;;1.90;0.93;;;;;;;14.47;63.55;101902.63;5022849;28;20390;-73
2022/07/28 00:11:25;;;;;;;1.70;0.98;;;;;;;14.41;61.20;101893.16;5024410;28;20031;-73
2022/07/28 00:13:51;;;;;;;2.90;1.00;;;;;;;14.37;61.48;101888.91;5024732;28;20089;-72
2022/07/28 00:16:16;;;;;;;2.67;1.05;;;;;;;14.32;61.36;101898.66;5022166;28;20047;-73
2022/07/28 00:18:42;;;;;;;1.88;1.10;;;;;;;14.36;62.38;101886.34;5024758;28;20056;-72
2022/07/28 00:21:07;;;;;;;3.53;1.00;;;;;;;14.32;61.47;101877.72;5026410;28;20112;-72
2022/07/28 00:23:33;;;;;;;2.40;0.82;;;;;;;14.31;61.78;101881.22;5025686;28;20068;-72
2022/07/28 00:25:58;;;;;;;2.33;0.90;;;;;;;14.25;61.54;101883.97;5022870;28;20127;-73
2022/07/28 00:28:23;;;;;;;4.60;0.98;;;;;;;14.21;62.29;101883.19;5026125;28;20057;-73
2022/07/28 00:30:49;;;;;;;2.38;0.88;;;;;;;14.18;61.88;101878.03;5021662;28;20033;-72
2022/07/28 00:33:14;;;;;;;2.85;1.08;;;;;;;14.17;61.82;101878.09;5023300;28;20083;-72
2022/07/28 00:35:39;;;;;;;3.13;0.98;;;;;;;14.11;61.93;101881.69;5021636;28;20375;-73
2022/07/28 00:38:05;;;;;;;2.47;0.90;;;;;;;14.06;62.22;101887.03;5023944;28;20084;-72
2022/07/28 00:43:14;;;;;;;1.80;0.98;;;;;;;13.97;62.33;101876.78;5023361;28;20036;-73
2022/07/28 00:45:40;;;;;;;3.22;0.90;;;;;;;13.93;62.43;101875.16;5025136;28;20025;-73
2022/07/28 00:48:05;;;;;;;1.45;0.77;;;;;;;13.90;62.54;101872.59;5022058;28;20034;-72
2022/07/28 00:50:30;;;;;;;1.70;0.98;;;;;;;13.84;62.68;101873.59;5024439;28;20029;-72
2022/07/28 00:52:57;;;;;;;3.00;0.90;;;;;;;13.80;62.80;101871.94;5022980;28;20530;-72
2022/07/28 00:55:23;;;;;;;1.75;0.90;;;;;;;13.75;62.75;101868.59;5022883;28;20033;-72
2022/07/28 00:57:48;;;;;;;2.53;1.00;;;;;;;13.69;63.34;101869.56;5021963;28;20052;-72
2022/07/28 01:00:14;;;;;;;2.35;0.90;;;;;;;13.65;63.45;101867.94;5023406;28;20029;-73
2022/07/28 01:02:40;;;;;;;1.88;1.00;;;;;;;13.57;63.47;101878.56;5025400;28;22217;-72
2022/07/28 01:05:06;;;;;;;2.00;1.02;;;;;;;13.55;63.50;101874.25;5023614;28;20068;-72
2022/07/28 01:07:59;;;;;;;3.95;1.10;;;;;;;13.50;63.25;101864.72;5023380;28;20049;-72
2022/07/28 01:10:33;;;;;;;3.25;1.10;;;;;;;13.47;63.19;101856.97;5024803;28;20061;-72
2022/07/28 01:13:09;;;;;;;4.22;1.10;;;;;;;13.45;63.64;101858.78;5022815;28;20179;-72
2022/07/28 01:15:44;;;;;;;2.42;1.10;;;;;;;13.42;63.93;101861.44;5020875;28;20053;-72
2022/07/28 01:18:19;;;;;;;4.07;1.20;;;;;;;13.35;63.77;101857.19;5021382;28;20083;-72
2022/07/28 01:20:48;;;;;;;3.17;1.15;;;;;;;13.32;63.88;101850.28;5022868;28;20029;-72
2022/07/28 01:23:32;;;;;;;3.15;1.10;;;;;;;13.27;63.78;101854.75;5024998;28;20100;-72
2022/07/28 01:26:15;;;;;;;3.55;1.20;;;;;;;13.21;63.40;101855.72;5024537;28;20044;-72
2022/07/28 01:29:14;;;;;;;3.50;1.15;;;;;;;13.17;63.97;101851.44;5022796;28;20025;-73
2022/07/28 01:31:42;;;;;;;2.75;1.08;;;;;;;13.12;64.46;101842.00;5019536;28;20013;-72
2022/07/28 01:34:18;;;;;;;3.25;1.02;;;;;;;13.11;63.86;101855.94;5024680;28;20049;-72
2022/07/28 01:36:50;;;;;;;2.33;1.00;;;;;;;13.06;64.61;101850.81;5022922;28;20061;-72
2022/07/28 01:39:17;;;;;;;3.80;1.02;;;;;;;13.01;64.96;101848.31;5023665;28;20034;-72
2022/07/28 01:41:44;;;;;;;2.72;1.23;;;;;;;12.98;64.92;101848.34;5024663;28;20389;-73
2022/07/28 01:44:14;;;;;;;1.92;1.05;;;;;;;12.96;64.89;101846.69;5023878;28;20048;-72
2022/07/28 01:46:41;;;;;;;2.08;1.02;;;;;;;12.92;65.20;101842.41;5037233;28;20193;-72
2022/07/28 01:49:08;;;;;;;3.17;1.17;;;;;;;12.85;65.72;101850.34;5020760;28;20634;-72
2022/07/28 01:51:35;;;;;;;2.55;1.10;;;;;;;12.80;65.78;101861.78;5024637;28;20438;-72
2022/07/28 01:54:01;;;;;;;4.13;1.73;;;;;;;12.76;65.85;101847.91;5026653;28;20037;-72
2022/07/28 01:56:29;;;;;;;2.67;1.30;;;;;;;12.74;65.44;101845.31;5024739;28;20037;-72
2022/07/28 01:58:58;;;;;;;4.93;1.25;;;;;;;12.76;65.30;101842.69;5025377;28;20033;-72
2022/07/28 02:01:25;;;;;;;3.13;1.20;;;;;;;12.72;65.45;101839.25;5028765;28;20064;-72
2022/07/28 02:03:53;;;;;;;2.78;1.65;;;;;;;12.70;65.42;101842.78;5029232;28;20488;-72
2022/07/28 02:06:20;;;;;;;1.85;1.10;;;;;;;12.68;65.53;101836.75;5029463;28;20468;-72
2022/07/28 02:08:48;;;;;;;5.00;1.30;;;;;;;12.63;65.43;101836.00;5023857;28;20031;-72
2022/07/28 02:13:58;;;;;;;2.40;1.40;;;;;;;12.60;65.73;101837.75;5025756;28;20052;-72
2022/07/28 02:16:26;;;;;;;2.95;1.20;;;;;;;12.58;65.90;101834.31;5023743;28;20030;-72
2022/07/28 02:18:54;;;;;;;3.15;1.10;;;;;;;12.56;65.69;101830.88;5030746;28;20025;-72
2022/07/28 02:21:20;;;;;;;1.88;1.08;;;;;;;12.56;65.51;101820.44;5027778;28;20091;-72
2022/07/28 02:23:47;;;;;;;4.82;1.50;;;;;;;12.55;65.68;101820.47;5027651;28;20036;-72
2022/07/28 02:26:15;;;;;;;2.60;1.20;;;;;;;12.53;65.77;101817.88;5026763;28;20033;-72
2022/07/28 02:28:42;;;;;;;2.30;1.10;;;;;;;12.50;65.75;101817.91;5024230;28;20048;-72
2022/07/28 02:31:13;;;;;;;4.28;1.90;;;;;;;12.47;65.85;101812.75;5023571;28;20025;-72
2022/07/28 02:33:40;;;;;;;2.58;1.20;;;;;;;12.44;65.90;101811.06;5025713;28;20093;-72
2022/07/28 02:36:29;;;;;;;4.05;1.20;;;;;;;12.43;65.34;101818.94;5024679;28;20037;-72
2022/07/28 02:39:00;;;;;;;2.75;1.17;;;;;;;12.41;66.04;101815.47;5023548;28;20036;-73
2022/07/28 02:41:27;;;;;;;3.63;1.20;;;;;;;12.39;66.22;101819.88;5027430;28;20049;-72
2022/07/28 02:43:57;;;;;;;2.88;1.42;;;;;;;12.39;65.87;101817.25;5024207;28;20052;-72
2022/07/28 02:46:26;;;;;;;2.50;1.23;;;;;;;12.39;65.77;101817.25;5029948;28;20052;-72
2022/07/28 02:48:59;;;;;;;2.97;1.17;;;;;;;12.39;65.52;101822.47;5026684;28;20029;-72
2022/07/28 02:51:28;;;;;;;2.78;1.10;;;;;;;12.35;65.78;101815.59;5025443;28;20624;-72
2022/07/28 02:53:55;;;;;;;3.33;1.20;;;;;;;12.33;65.68;101817.34;5027192;28;20104;-72
2022/07/28 02:56:21;;;;;;;2.97;1.20;;;;;;;12.33;65.77;101812.13;5024622;28;20064;-72
2022/07/28 02:58:48;;;;;;;2.83;1.02;;;;;;;12.33;65.75;101812.13;5023658;28;20452;-72
2022/07/28 03:01:17;;;;;;;4.45;1.20;;;;;;;12.29;65.78;101817.44;5022640;28;20060;-72
2022/07/28 03:03:45;;;;;;;3.03;1.08;;;;;;;12.28;65.79;101820.03;5026870;28;20017;-72
2022/07/28 03:06:10;;;;;;;2.08;1.05;;;;;;;12.26;66.13;101819.22;5024701;28;20064;-72
2022/07/28 03:08:36;;;;;;;1.98;1.20;;;;;;;12.25;66.07;101818.38;5025790;28;20033;-72
2022/07/28 03:11:09;;;;;;;3.03;1.20;;;;;;;12.22;65.82;101821.03;5022569;28;20108;-72
2022/07/28 03:13:34;;;;;;;3.30;1.20;;;;;;;12.20;66.18;101814.97;5024154;28;20112;-72
2022/07/28 03:15:59;;;;;;;3.50;1.30;;;;;;;12.16;66.17;101813.28;5023421;28;20143;-72
2022/07/28 03:18:27;;;;;;;2.78;1.17;;;;;;;12.13;66.47;101816.81;5022182;28;20025;-72
2022/07/28 03:20:53;;;;;;;3.70;1.20;;;;;;;12.12;66.38;101814.25;5023731;28;20032;-72
2022/07/28 03:23:23;;;;;;;3.08;1.35;;;;;;;12.10;66.27;101813.41;5024233;28;20030;-72
2022/07/28 03:25:53;;;;;;;3.22;1.30;;;;;;;12.10;66.07;101816.88;5023801;28;20036;-72
2022/07/28 03:28:20;;;;;;;2.30;1.25;;;;;;;12.09;66.43;101819.50;5023957;28;20021;-72
2022/07/28 03:30:53;;;;;;;3.55;1.20;;;;;;;12.05;66.38;101830.88;5021162;28;20029;-72
2022/07/28 03:33:18;;;;;;;1.60;1.15;;;;;;;12.04;66.47;101823.94;5024853;28;20029;-72
2022/07/28 03:35:49;;;;;;;2.97;1.10;;;;;;;12.01;66.53;101831.78;5023671;28;20380;-72
2022/07/28 03:38:19;;;;;;;1.70;1.10;;;;;;;11.95;66.90;101836.22;5025791;28;20050;-72
2022/07/28 03:40:47;;;;;;;4.78;1.30;;;;;;;11.93;66.57;101835.38;5025453;28;20288;-72
2022/07/28 03:43:15;;;;;;;3.65;1.20;;;;;;;11.92;66.80;101828.44;5025847;28;20038;-72
2022/07/28 03:45:40;;;;;;;3.33;1.23;;;;;;;11.91;66.74;101831.03;5023035;28;20061;-71
2022/07/28 03:48:06;;;;;;;3.65;1.30;;;;;;;11.90;66.56;101827.59;5025443;28;20060;-72
2022/07/28 03:50:33;;;;;;;2.60;1.45;;;;;;;11.90;66.77;101824.09;5026841;28;20033;-73
2022/07/28 03:53:01;;;;;;;2.65;1.40;;;;;;;11.90;66.54;101824.97;5023921;28;20048;-72
2022/07/28 03:55:27;;;;;;;2.78;1.50;;;;;;;11.88;66.90;101825.88;5024652;28;20033;-72
2022/07/28 03:57:52;;;;;;;3.05;1.40;;;;;;;11.84;67.07;101822.44;5024477;28;20029;-72
2022/07/28 04:00:18;;;;;;;2.47;1.50;;;;;;;11.84;66.88;101825.06;5022186;28;20027;-72
2022/07/28 04:02:45;;;;;;;3.38;1.30;;;;;;;11.81;67.23;101831.19;5024444;28;20029;-72
2022/07/28 04:05:13;;;;;;;4.43;1.20;;;;;;;11.78;67.25;101828.63;5022854;28;20048;-72
2022/07/28 04:07:40;;;;;;;2.92;1.30;;;;;;;11.78;67.44;101822.56;5024368;28;20038;-73
2022/07/28 04:10:10;;;;;;;4.55;1.40;;;;;;;11.77;67.22;101820.84;5023575;28;20087;-72
2022/07/28 04:12:54;;;;;;;4.47;1.45;;;;;;;11.75;67.20;101826.06;5021699;28;20033;-72
2022/07/28 04:15:20;;;;;;;3.05;1.30;;;;;;;11.73;67.71;101819.16;5021245;28;20017;-72
2022/07/28 04:17:48;;;;;;;2.63;1.38;;;;;;;11.73;67.73;101825.22;5024903;28;20476;-72
2022/07/28 04:20:15;;;;;;;2.90;1.30;;;;;;;11.74;67.70;101826.94;5023527;28;20025;-72
2022/07/28 04:22:41;;;;;;;5.50;1.35;;;;;;;11.77;67.79;101820.84;5023916;28;20067;-72
2022/07/28 04:25:07;;;;;;;3.03;1.25;;;;;;;11.76;67.84;101811.28;5026364;28;20421;-72
2022/07/28 04:27:35;;;;;;;3.10;1.52;;;;;;;11.67;68.58;101818.34;5025339;28;20033;-73
2022/07/28 04:30:03;;;;;;;3.40;1.70;;;;;;;11.56;69.05;101820.25;5023358;28;20158;-72
2022/07/28 04:32:28;;;;;;;3.72;1.50;;;;;;;11.48;69.54;101811.69;5024019;28;20017;-72
2022/07/28 04:34:53;;;;;;;3.30;1.70;;;;;;;11.44;69.69;101808.25;5023090;28;20028;-72
2022/07/28 04:37:18;;;;;;;3.22;1.60;;;;;;;11.46;69.95;101803.03;5025860;28;20424;-72
2022/07/28 04:39:44;;;;;;;5.25;1.80;;;;;;;11.48;69.86;101814.28;5027385;28;20065;-72
2022/07/28 04:42:10;;;;;;;4.38;2.10;;;;;;;11.50;69.61;101807.31;5025314;28;20025;-72
2022/07/28 04:44:39;;;;;;;2.10;1.40;;;;;;;11.57;69.59;101810.69;5025764;28;20029;-72
2022/07/28 04:47:04;;;;;;;2.97;1.50;;;;;;;11.75;69.39;101801.75;5026013;28;21132;-73
2022/07/28 04:49:29;;;;;;;3.40;1.60;;;;;;;11.88;68.78;101808.50;5023479;28;20030;-72
2022/07/28 04:51:55;;;;;;;3.35;1.50;;;;;;;11.86;69.02;101810.25;5025922;28;20771;-72
2022/07/28 04:54:20;;;;;;;4.28;1.50;;;;;;;11.79;69.25;101808.63;5021821;28;20087;-72
2022/07/28 04:56:45;;;;;;;8.70;1.90;;;;;;;11.71;70.01;101815.72;5023369;28;20037;-72
2022/07/28 04:59:10;;;;;;;5.22;1.67;;;;;;;11.71;70.50;101818.31;5020966;28;20115;-72
2022/07/28 05:01:37;;;;;;;4.95;1.70;;;;;;;11.73;70.30;101816.56;5021191;28;20039;-72
2022/07/28 05:04:04;;;;;;;3.40;1.70;;;;;;;11.74;70.30;101813.06;5020794;28;20044;-72
2022/07/28 05:06:30;;;;;;;5.50;1.95;;;;;;;11.71;70.17;101808.72;5020732;28;20033;-73
2022/07/28 05:08:55;;;;;;;4.82;1.88;;;;;;;11.71;70.57;101813.09;5026297;28;20036;-73
2022/07/28 05:11:20;;;;;;;6.38;1.80;;;;;;;11.74;70.72;101808.69;5026158;28;20446;-72
2022/07/28 05:13:46;;;;;;;5.80;1.60;;;;;;;11.73;70.55;101804.38;5027064;28;20040;-72
2022/07/28 05:16:11;;;;;;;4.57;2.03;;;;;;;11.79;70.20;101811.22;5026265;28;20025;-72
2022/07/28 05:18:36;;;;;;;3.65;1.90;;;;;;;11.82;70.44;101814.66;5025294;28;20392;-72
2022/07/28 05:21:01;;;;;;;4.28;1.77;;;;;;;11.87;70.25;101818.97;5024899;28;20029;-72
2022/07/28 05:23:27;;;;;;;4.25;1.90;;;;;;;11.88;70.48;101818.03;5025829;28;20026;-72
2022/07/28 05:25:52;;;;;;;4.75;1.85;;;;;;;11.91;70.59;101818.88;5026851;28;20075;-72
2022/07/28 05:28:17;;;;;;;4.60;1.88;;;;;;;11.95;70.72;101815.34;5027860;28;20041;-72
2022/07/28 05:30:43;;;;;;;4.65;1.70;;;;;;;12.03;70.24;101809.16;5027190;28;20033;-73
2022/07/28 05:33:08;;;;;;;4.35;1.83;;;;;;;12.12;70.42;101811.63;5029578;28;20032;-73
2022/07/28 05:35:34;;;;;;;5.53;1.70;;;;;;;12.21;70.27;101814.06;5027614;28;20369;-72
2022/07/28 05:37:59;;;;;;;4.43;1.58;;;;;;;12.35;70.03;101810.38;5031311;28;20878;-72
2022/07/28 05:40:26;;;;;;;5.53;1.77;;;;;;;12.47;69.32;101804.91;5029345;28;20044;-72
2022/07/28 05:42:51;;;;;;;4.30;1.67;;;;;;;12.57;68.77;101816.94;5025688;28;20120;-73
2022/07/28 05:45:16;;;;;;;4.70;1.55;;;;;;;12.69;68.65;101820.19;5031048;28;20117;-72
2022/07/28 05:47:51;;;;;;;2.80;1.38;;;;;;;12.74;67.56;101818.34;5028428;28;20051;-72
2022/07/28 05:50:17;;;;;;;2.58;1.40;;;;;;;12.77;67.68;101828.75;5026292;28;20041;-72
2022/07/28 05:52:44;;;;;;;3.15;1.30;;;;;;;12.80;67.56;101826.09;5028730;28;20033;-73
2022/07/28 05:55:09;;;;;;;4.30;1.58;;;;;;;12.88;67.28;101821.56;5028405;28;20025;-72
2022/07/28 05:57:36;;;;;;;3.45;1.60;;;;;;;12.99;67.20;101825.69;5028970;28;20383;-72
2022/07/28 06:00:04;;;;;;;2.78;1.27;;;;;;;13.06;68.12;101825.53;5031421;28;20033;-72
2022/07/28 06:02:29;;;;;;;3.33;1.30;;;;;;;13.20;67.01;101816.59;5029839;28;20025;-72
2022/07/28 06:04:56;;;;;;;3.92;1.30;;;;;;;13.39;67.09;101831.88;5031123;28;20480;-72
2022/07/28 06:07:21;;;;;;;3.78;1.33;;;;;;;13.53;66.31;101828.97;5030210;28;20068;-72
2022/07/28 06:09:46;;;;;;;5.43;1.38;;;;;;;13.62;64.95;101823.53;5025864;28;20061;-72
2022/07/28 06:12:11;;;;;;;2.95;1.20;;;;;;;13.69;64.77;101825.09;5028300;28;20087;-72
2022/07/28 06:14:37;;;;;;;3.17;1.60;;;;;;;13.75;64.43;101829.38;5026764;28;20029;-72
2022/07/28 06:17:02;;;;;;;3.60;1.20;;;;;;;13.81;64.96;101829.19;5027251;28;20384;-72
2022/07/28 06:19:27;;;;;;;3.67;1.17;;;;;;;13.84;64.53;101826.53;5029682;28;20040;-73
2022/07/28 06:21:52;;;;;;;4.15;1.27;;;;;;;13.89;64.18;101827.28;5029296;28;20559;-72
2022/07/28 06:24:18;;;;;;;2.45;1.05;;;;;;;14.01;64.97;101820.88;5028284;28;20030;-72
2022/07/28 06:26:43;;;;;;;3.80;1.33;;;;;;;14.05;62.86;101822.50;5030847;28;20048;-73
2022/07/28 06:29:09;;;;;;;3.80;1.20;;;;;;;14.10;64.20;101823.28;5028990;28;20388;-73
2022/07/28 06:31:34;;;;;;;3.90;1.30;;;;;;;14.13;62.78;101826.72;5028239;28;20053;-72
2022/07/28 06:34:00;;;;;;;3.40;1.20;;;;;;;14.19;62.48;101823.91;5029699;28;20075;-72
2022/07/28 06:36:25;;;;;;;2.75;1.02;;;;;;;14.21;62.99;101825.63;5028674;28;20104;-73
2022/07/28 06:38:50;;;;;;;4.95;1.33;;;;;;;14.24;63.08;101822.06;5028030;28;20128;-72
2022/07/28 06:41:15;;;;;;;5.32;1.20;;;;;;;14.26;62.26;101821.09;5028539;28;20492;-72
2022/07/28 06:43:41;;;;;;;5.88;1.10;;;;;;;14.37;61.88;101818.22;5026267;28;20034;-72
2022/07/28 06:46:06;;;;;;;3.97;1.23;;;;;;;14.39;61.75;101821.66;5028376;28;20025;-72
2022/07/28 06:48:31;;;;;;;2.38;1.27;;;;;;;14.39;62.67;101820.81;5028445;28;20026;-73
2022/07/28 06:50:58;;;;;;;2.85;1.00;;;;;;;14.40;63.44;101823.38;5026028;28;20060;-73
2022/07/28 06:53:24;;;;;;;2.78;1.15;;;;;;;14.48;62.80;101814.47;5026053;28;20034;-73
2022/07/28 06:55:49;;;;;;;3.85;1.20;;;;;;;14.53;62.28;101817.81;5026412;28;20036;-73
2022/07/28 06:58:14;;;;;;;3.65;1.08;;;;;;;14.64;62.95;101815.78;5028115;28;20033;-73
2022/07/28 07:00:39;;;;;;;3.20;1.05;;;;;;;14.79;63.15;101811.06;5027777;28;20040;-72
2022/07/28 07:03:05;;;;;;;2.55;1.10;;;;;;;14.87;61.14;101811.69;5027163;28;20115;-73
2022/07/28 07:05:30;;;;;;;3.33;1.00;;;;;;;14.89;60.92;101815.13;5025898;28;20027;-72
2022/07/28 07:07:56;;;;;;;2.95;1.00;;;;;;;14.95;62.49;101811.47;5028459;28;20121;-72
2022/07/28 07:10:21;;;;;;;2.45;1.00;;;;;;;15.06;60.99;101819.91;5027697;28;20400;-73
2022/07/28 07:12:46;;;;;;;3.75;1.00;;;;;;;15.39;60.94;101813.69;5025888;28;20083;-73
2022/07/28 07:15:12;;;;;;;2.78;1.05;;;;;;;15.59;60.82;101816.56;5028451;28;20056;-73
2022/07/28 07:17:37;;;;;;;2.83;0.80;;;;;;;15.78;59.43;101815.97;5025989;28;20029;-72
2022/07/28 07:20:04;;;;;;;2.45;0.90;;;;;;;15.95;59.02;101814.59;5029779;28;20088;-73
2022/07/28 07:22:30;;;;;;;3.45;0.90;;;;;;;16.00;59.70;101816.16;5028106;28;20030;-73
2022/07/28 07:24:55;;;;;;;3.35;1.00;;;;;;;16.10;59.43;101815.88;5026777;28;20029;-72
2022/07/28 07:27:20;;;;;;;3.22;1.00;;;;;;;16.26;59.95;101813.56;5027928;28;20032;-73
2022/07/28 07:29:45;;;;;;;4.75;0.90;;;;;;;16.42;59.05;101814.75;5028116;28;20036;-73
2022/07/28 07:32:11;;;;;;;4.18;1.00;;;;;;;16.50;56.16;101814.47;5027143;28;20516;-73
2022/07/28 07:34:38;;;;;;;3.17;0.90;;;;;;;16.54;58.02;101822.22;5025693;28;20033;-73
2022/07/28 07:37:04;;;;;;;3.17;0.80;;;;;;;16.53;55.39;101825.75;5029036;28;21924;-72
2022/07/28 07:39:29;;;;;;;2.65;0.70;;;;;;;16.53;58.28;101815.25;5027285;28;20488;-73
2022/07/28 07:41:55;;;;;;;4.68;1.00;;;;;;;16.58;57.65;101830.84;5028187;28;20059;-73
2022/07/28 07:44:20;;;;;;;1.95;0.70;;;;;;;16.67;57.99;101816.53;5027548;28;20079;-77
2022/07/28 07:46:45;;;;;;;2.08;0.80;;;;;;;16.80;58.27;101812.53;5028053;28;20021;-74
2022/07/28 07:49:10;;;;;;;2.25;0.82;;;;;;;16.93;57.53;101814.72;5029685;28;20129;-73
2022/07/28 07:51:36;;;;;;;2.83;0.98;;;;;;;16.99;56.15;101817.16;5028826;28;20033;-74
2022/07/28 07:54:01;;;;;;;2.70;0.80;;;;;;;17.08;56.20;101811.53;5028674;28;20033;-74
2022/07/28 07:56:26;;;;;;;2.45;0.60;;;;;;;17.17;56.30;101805.06;5028762;28;20017;-73
2022/07/28 07:58:52;;;;;;;2.58;0.70;;;;;;;17.23;54.71;101809.25;5029404;28;20037;-73
2022/07/28 08:01:17;;;;;;;1.83;0.75;;;;;;;17.27;55.91;101801.19;5030247;28;20464;-74
2022/07/28 08:03:43;;;;;;;3.13;0.88;;;;;;;17.36;56.04;101807.88;5030769;28;20075;-74
2022/07/28 08:06:08;;;;;;;3.05;0.90;;;;;;;17.42;55.69;101807.59;5028175;28;20021;-73
2022/07/28 08:08:34;;;;;;;2.20;0.90;;;;;;;17.47;54.21;101796.06;5029801;28;20112;-74
2022/07/28 08:10:59;;;;;;;2.47;0.77;;;;;;;17.52;55.40;101804.63;5029221;28;20105;-74
2022/07/28 08:13:24;;;;;;;2.63;0.80;;;;;;;17.56;55.64;101796.53;5030295;28;20376;-74
2022/07/28 08:15:50;;;;;;;2.40;0.60;;;;;;;17.61;55.69;101804.25;5027867;28;20045;-74
2022/07/28 08:18:15;;;;;;;2.50;0.60;;;;;;;17.63;55.18;101806.84;5026356;28;20476;-73
2022/07/28 08:20:40;;;;;;;2.53;0.80;;;;;;;17.64;54.65;101803.28;5028532;28;20026;-74
2022/07/28 08:23:06;;;;;;;2.22;0.80;;;;;;;17.67;55.12;101793.50;5027470;28;20033;-73
2022/07/28 08:25:35;;;;;;;3.10;0.80;;;;;;;17.67;55.26;101787.38;5028003;28;20048;-73
2022/07/28 08:28:02;;;;;;;1.53;0.80;;;;;;;17.71;55.03;101794.22;5039362;28;20045;-73
2022/07/28 08:30:27;;;;;;;2.28;0.73;;;;;;;17.73;54.42;101789.75;5029953;28;20035;-73
2022/07/28 08:32:52;;;;;;;2.38;0.63;;;;;;;17.75;55.06;101790.53;5028545;28;20029;-74
2022/07/28 08:35:18;;;;;;;2.50;0.90;;;;;;;17.77;55.55;101793.09;5029664;28;20048;-73
2022/07/28 08:37:43;;;;;;;2.53;0.80;;;;;;;17.79;55.21;101786.88;5027611;28;20069;-73
2022/07/28 08:40:15;;;;;;;2.40;0.60;;;;;;;17.77;54.03;101783.44;5029359;28;20369;-74
2022/07/28 08:42:51;;;;;;;2.15;0.80;;;;;;;17.77;54.33;101793.09;5030295;28;20067;-74
2022/07/28 08:45:18;;;;;;;5.60;0.93;;;;;;;17.76;53.79;101787.00;5029258;28;20108;-74
2022/07/28 08:47:44;;;;;;;1.88;0.70;;;;;;;17.78;54.68;101798.31;5029402;28;20500;-74
2022/07/28 08:50:12;;;;;;;1.50;0.60;;;;;;;17.80;54.10;101798.25;5030015;28;20033;-74
2022/07/28 08:52:38;;;;;;;2.17;0.70;;;;;;;17.85;54.40;101785.75;5027070;28;20026;-73
2022/07/28 08:55:06;;;;;;;3.08;0.80;;;;;;;17.88;54.45;101786.47;5027451;28;20017;-74
2022/07/28 08:57:35;;;;;;;1.10;0.55;;;;;;;17.93;53.98;101785.44;5026944;28;20052;-73
2022/07/28 09:00:01;;;;;;;2.90;0.70;;;;;;;17.98;54.10;101786.97;5024993;28;20029;-73
2022/07/28 09:02:28;;;;;;;4.18;0.90;;;;;;;18.01;53.57;101786.88;5027946;28;20029;-74
2022/07/28 09:04:55;;;;;;;3.45;0.70;;;;;;;18.04;53.68;101785.88;5027019;28;20381;-73
2022/07/28 09:07:22;;;;;;;2.65;0.70;;;;;;;18.06;53.68;101778.75;5027017;28;20022;-73
2022/07/28 09:09:49;;;;;;;2.00;0.70;;;;;;;18.10;53.51;101782.16;5027354;28;20079;-74
2022/07/28 09:12:14;;;;;;;2.55;0.70;;;;;;;18.11;53.07;101786.47;5027673;28;20039;-74
2022/07/28 09:14:40;;;;;;;1.60;0.70;;;;;;;18.13;53.65;101780.22;5027626;28;20017;-74
2022/07/28 09:17:05;;;;;;;3.10;0.80;;;;;;;18.18;53.91;101791.44;5027144;28;20048;-73
2022/07/28 09:19:31;;;;;;;2.50;0.73;;;;;;;18.23;53.26;101787.72;5028586;28;20599;-74
2022/07/28 09:21:58;;;;;;;2.42;0.80;;;;;;;18.26;53.21;101782.31;5028858;28;20535;-73
2022/07/28 09:24:40;;;;;;;3.20;1.00;;;;;;;18.29;53.62;101780.41;5027698;28;20034;-73
2022/07/28 09:27:08;;;;;;;2.10;0.88;;;;;;;18.34;53.07;101774.97;5027580;28;20120;-74
2022/07/28 09:29:35;;;;;;;1.95;0.70;;;;;;;18.38;52.14;101773.88;5026241;28;20072;-74
2022/07/28 09:32:00;;;;;;;3.15;0.70;;;;;;;18.40;52.73;101760.66;5026369;28;20532;-74
2022/07/28 09:34:26;;;;;;;1.73;0.63;;;;;;;18.42;52.11;101756.19;5027140;28;20134;-74
2022/07/28 09:36:51;;;;;;;1.60;0.70;;;;;;;18.43;52.46;101756.09;5025485;28;20050;-74
2022/07/28 09:39:48;;;;;;;1.23;0.60;;;;;;;18.47;53.38;101746.28;5023964;28;20033;-73
2022/07/28 09:42:14;;;;;;;1.08;0.60;;;;;;;18.50;52.38;101740.88;5013497;28;20099;-74
2022/07/28 09:44:40;;;;;;;1.67;0.70;;;;;;;18.53;52.51;101740.72;5024340;28;20053;-74
2022/07/28 09:47:27;;;;;;;2.53;0.80;;;;;;;18.58;52.59;101741.41;5026401;28;20017;-75
2022/07/28 09:49:53;;;;;;;1.58;0.80;;;;;;;18.61;52.69;101737.75;5027221;28;20053;-74
2022/07/28 09:52:31;;;;;;;3.05;0.90;;;;;;;18.61;50.68;101735.13;5026785;28;20025;-74
2022/07/28 09:55:01;;;;;;;3.80;0.95;;;;;;;18.62;51.43;101735.03;5028019;28;20025;-74
2022/07/28 09:57:27;;;;;;;1.35;0.73;;;;;;;18.66;51.99;101733.13;5026523;28;20025;-74
2022/07/28 09:59:54;;;;;;;2.63;0.70;;;;;;;18.69;51.35;101732.13;5021452;28;20376;-74
2022/07/28 10:02:23;;;;;;;1.80;0.70;;;;;;;18.70;51.36;101718.03;5025604;28;20104;-74
2022/07/28 10:04:51;;;;;;;2.17;0.73;;;;;;;18.71;51.79;101717.09;5024855;28;20030;-74
2022/07/28 10:07:17;;;;;;;3.05;0.70;;;;;;;18.72;50.23;101708.28;5024636;28;20084;-73
2022/07/28 10:09:43;;;;;;;1.55;0.60;;;;;;;18.74;50.82;101716.97;5025704;28;20033;-73
2022/07/28 10:12:24;;;;;;;3.58;0.80;;;;;;;18.76;52.13;101715.13;5026599;28;20033;-74
2022/07/28 10:14:52;;;;;;;2.35;0.70;;;;;;;18.78;51.14;101718.53;5028313;28;20025;-73
2022/07/28 10:17:33;;;;;;;3.45;0.60;;;;;;;18.80;52.01;101721.94;5027858;28;20025;-75
2022/07/28 10:20:05;;;;;;;3.28;0.73;;;;;;;18.84;51.34;101722.66;5025566;28;20022;-73
2022/07/28 10:22:32;;;;;;;1.90;0.75;;;;;;;18.85;51.38;101725.22;5029004;28;20025;-73
2022/07/28 10:25:06;;;;;;;2.30;0.80;;;;;;;18.89;50.75;101723.28;5029805;28;20117;-73
2022/07/28 10:27:32;;;;;;;3.30;0.70;;;;;;;18.90;50.27;101712.69;5025228;28;20037;-74
2022/07/28 10:30:00;;;;;;;2.05;1.02;;;;;;;18.94;50.25;101719.56;5026951;28;20040;-74
2022/07/28 10:32:28;;;;;;;2.85;0.85;;;;;;;18.96;51.02;101707.13;5027845;28;20033;-74
2022/07/28 10:35:03;;;;;;;2.47;1.20;;;;;;;18.95;51.35;101721.28;5026501;28;20013;-75
2022/07/28 10:37:30;;;;;;;3.70;1.60;;;;;;;18.98;50.63;101719.41;5025104;28;20061;-75
2022/07/28 10:40:11;;;;;;;7.47;3.22;;;;;;;18.98;50.09;101704.44;5027477;28;20068;-76
2022/07/28 10:42:39;;;;;;;5.30;3.38;;;;;;;19.06;50.21;101710.19;5024866;28;20183;-74
2022/07/28 10:45:06;;;;;;;4.72;3.35;;;;;;;19.14;50.79;101709.81;5025669;28;20168;-74
2022/07/28 10:47:32;;;;;;;5.80;3.65;;;;;;;19.20;50.22;101704.25;5024219;28;20117;-74
2022/07/28 10:49:57;;;;;;;5.65;2.70;;;;;;;19.25;49.32;101704.91;5030285;28;20018;-75
2022/07/28 10:52:24;;;;;;;5.25;3.10;;;;;;;19.25;50.04;101697.00;5030472;28;20488;-75
2022/07/28 10:55:11;;;;;;;4.40;2.67;;;;;;;19.26;49.85;101703.09;5029051;28;20333;-75
2022/07/28 10:57:42;;;;;;;4.13;2.13;;;;;;;19.25;48.34;101698.75;5031189;28;20029;-74
2022/07/28 11:00:20;;;;;;;3.17;2.20;;;;;;;19.28;49.45;101701.25;5028686;28;20487;-75
2022/07/28 11:02:51;;;;;;;4.75;1.70;;;;;;;19.33;48.84;101698.38;5029759;28;20025;-73
2022/07/28 11:05:38;;;;;;;3.55;1.80;;;;;;;19.38;49.51;101701.66;5029711;28;20017;-74
2022/07/28 11:08:07;;;;;;;3.92;1.88;;;;;;;19.38;48.95;101699.88;5028989;28;20029;-74
2022/07/28 11:11:02;;;;;;;2.83;1.70;;;;;;;19.42;49.90;101700.59;5030067;28;20113;-74
2022/07/28 11:13:30;;;;;;;3.25;1.30;;;;;;;19.43;47.99;101702.28;5011061;28;20049;-75
2022/07/28 11:16:17;;;;;;;1.73;1.30;;;;;;;19.47;48.71;101701.19;5029520;28;20026;-74
2022/07/28 11:19:09;;;;;;;2.80;1.33;;;;;;;19.49;49.45;101694.06;5027716;28;20211;-75
2022/07/28 11:21:34;;;;;;;2.88;1.38;;;;;;;19.49;47.75;101701.97;5027417;28;20021;-74
2022/07/28 11:24:00;;;;;;;2.95;1.50;;;;;;;19.50;48.47;101689.66;5021324;28;20033;-74
2022/07/28 11:26:33;;;;;;;2.33;1.40;;;;;;;19.53;48.32;101685.06;5026477;28;20052;-75
2022/07/28 11:28:58;;;;;;;2.67;1.20;;;;;;;19.58;49.33;101686.63;5023727;28;20081;-74
2022/07/28 11:31:42;;;;;;;3.38;1.13;;;;;;;19.60;48.58;101682.13;5019375;28;20032;-74
2022/07/28 11:34:08;;;;;;;3.42;1.00;;;;;;;19.62;48.48;101681.09;5021060;28;20096;-74